ESND

Sveg Airport

Sweden
METAR ESND 092050Z AUTO 25003KT 8000 -SN VV045 M04/M05 Q0984
Observed Flight Rules
Dec-9 @ 20:50 UTC (50 minutes ago) Instrument Flight Rules
Wind Visibility Clouds Conditions
250° at 3 knots 7,998 meters
  • Vertical visibility at 4,500' AGL
  • Light Snow
Temperatures Readings
Current -4°C / 25°F
Dewpoint -5°C / 23°F
Humidity 93%
Altimeter 29.06" Hg
Pressure 984 hPa
Elevation 359
METAR ESND 092050Z AUTO 25003KT 8000 -SN VV045 M04/M05 Q0984
Observed Flight Rules
Dec-9 @ 20:50 UTC
(50 minutes ago)
LIFR
Wind Visibility
250° at 3 knots 7,998 meters
Clouds
  • Vertical visibility at 4,500' AGL
Conditions
  • Light Snow
Temperature Dewpoint
-4°C / 25°F -5°C / 23°F
Humidity Altimeter Pressure
93% 29.06" Hg 984 hPa